sensor_id;sensor_type;location;lat;lon;timestamp;P1;durP1;ratioP1;P2;durP2;ratioP2
77078;SDS011;66004;55.096;38.760;2024-03-06T00:00:53;9.45;;;3.88;;
77078;SDS011;66004;55.096;38.760;2024-03-06T00:03:19;9.88;;;3.80;;
77078;SDS011;66004;55.096;38.760;2024-03-06T00:05:44;11.25;;;4.10;;
77078;SDS011;66004;55.096;38.760;2024-03-06T00:08:11;9.95;;;3.72;;
77078;SDS011;66004;55.096;38.760;2024-03-06T00:10:37;11.75;;;3.65;;
77078;SDS011;66004;55.096;38.760;2024-03-06T00:13:02;11.18;;;5.00;;
77078;SDS011;66004;55.096;38.760;2024-03-06T00:15:28;8.18;;;3.58;;
77078;SDS011;66004;55.096;38.760;2024-03-06T00:17:53;10.50;;;4.45;;
77078;SDS011;66004;55.096;38.760;2024-03-06T00:20:19;9.70;;;3.85;;
77078;SDS011;66004;55.096;38.760;2024-03-06T00:22:44;10.93;;;3.58;;
77078;SDS011;66004;55.096;38.760;2024-03-06T00:25:10;12.18;;;3.38;;
77078;SDS011;66004;55.096;38.760;2024-03-06T00:27:36;7.60;;;3.60;;
77078;SDS011;66004;55.096;38.760;2024-03-06T00:30:02;7.13;;;3.80;;
77078;SDS011;66004;55.096;38.760;2024-03-06T00:32:27;7.57;;;3.42;;
77078;SDS011;66004;55.096;38.760;2024-03-06T00:34:53;12.43;;;4.60;;
77078;SDS011;66004;55.096;38.760;2024-03-06T00:37:19;6.85;;;3.50;;
77078;SDS011;66004;55.096;38.760;2024-03-06T00:39:44;7.88;;;2.92;;
77078;SDS011;66004;55.096;38.760;2024-03-06T00:42:10;8.82;;;3.30;;
77078;SDS011;66004;55.096;38.760;2024-03-06T00:44:38;8.70;;;3.70;;
77078;SDS011;66004;55.096;38.760;2024-03-06T00:47:04;8.27;;;3.10;;
77078;SDS011;66004;55.096;38.760;2024-03-06T00:49:29;7.85;;;3.28;;
77078;SDS011;66004;55.096;38.760;2024-03-06T00:51:55;7.55;;;3.13;;
77078;SDS011;66004;55.096;38.760;2024-03-06T00:54:20;7.65;;;2.97;;
77078;SDS011;66004;55.096;38.760;2024-03-06T00:56:46;6.43;;;3.38;;
77078;SDS011;66004;55.096;38.760;2024-03-06T00:59:11;6.22;;;2.92;;
77078;SDS011;66004;55.096;38.760;2024-03-06T01:01:38;10.63;;;3.40;;
77078;SDS011;66004;55.096;38.760;2024-03-06T01:04:04;7.78;;;3.80;;
77078;SDS011;66004;55.096;38.760;2024-03-06T01:06:29;6.28;;;2.67;;
77078;SDS011;66004;55.096;38.760;2024-03-06T01:08:55;7.30;;;2.88;;
77078;SDS011;66004;55.096;38.760;2024-03-06T01:11:22;5.20;;;2.75;;
77078;SDS011;66004;55.096;38.760;2024-03-06T01:13:47;7.80;;;2.97;;
77078;SDS011;66004;55.096;38.760;2024-03-06T01:16:13;5.00;;;1.98;;
77078;SDS011;66004;55.096;38.760;2024-03-06T01:18:38;6.07;;;2.63;;
77078;SDS011;66004;55.096;38.760;2024-03-06T01:21:04;6.45;;;3.00;;
77078;SDS011;66004;55.096;38.760;2024-03-06T01:23:30;3.72;;;2.20;;
77078;SDS011;66004;55.096;38.760;2024-03-06T01:25:55;4.35;;;2.55;;
77078;SDS011;66004;55.096;38.760;2024-03-06T01:28:21;5.20;;;2.22;;
77078;SDS011;66004;55.096;38.760;2024-03-06T01:30:46;4.43;;;2.40;;
77078;SDS011;66004;55.096;38.760;2024-03-06T01:33:12;3.75;;;2.50;;
77078;SDS011;66004;55.096;38.760;2024-03-06T01:35:37;5.05;;;2.15;;
77078;SDS011;66004;55.096;38.760;2024-03-06T01:38:03;4.07;;;2.05;;
77078;SDS011;66004;55.096;38.760;2024-03-06T01:40:28;4.45;;;2.22;;
77078;SDS011;66004;55.096;38.760;2024-03-06T01:42:54;5.22;;;2.33;;
77078;SDS011;66004;55.096;38.760;2024-03-06T01:45:20;5.38;;;2.70;;
77078;SDS011;66004;55.096;38.760;2024-03-06T01:47:46;5.63;;;2.80;;
77078;SDS011;66004;55.096;38.760;2024-03-06T01:50:11;4.90;;;2.60;;
77078;SDS011;66004;55.096;38.760;2024-03-06T01:55:04;4.20;;;1.90;;
77078;SDS011;66004;55.096;38.760;2024-03-06T01:57:31;3.58;;;1.65;;
77078;SDS011;66004;55.096;38.760;2024-03-06T01:59:59;4.43;;;2.22;;
77078;SDS011;66004;55.096;38.760;2024-03-06T02:02:26;4.93;;;2.10;;
77078;SDS011;66004;55.096;38.760;2024-03-06T02:04:54;4.63;;;1.98;;
77078;SDS011;66004;55.096;38.760;2024-03-06T02:07:22;4.30;;;2.35;;
77078;SDS011;66004;55.096;38.760;2024-03-06T02:09:49;3.50;;;2.28;;
77078;SDS011;66004;55.096;38.760;2024-03-06T02:12:15;4.18;;;2.40;;
77078;SDS011;66004;55.096;38.760;2024-03-06T02:14:41;3.85;;;2.28;;
77078;SDS011;66004;55.096;38.760;2024-03-06T02:17:06;4.18;;;2.40;;
77078;SDS011;66004;55.096;38.760;2024-03-06T02:19:39;4.15;;;2.17;;
77078;SDS011;66004;55.096;38.760;2024-03-06T02:22:08;3.50;;;2.05;;
77078;SDS011;66004;55.096;38.760;2024-03-06T02:27:01;4.90;;;2.03;;
77078;SDS011;66004;55.096;38.760;2024-03-06T02:29:27;5.15;;;2.72;;
77078;SDS011;66004;55.096;38.760;2024-03-06T02:31:52;5.32;;;2.42;;
77078;SDS011;66004;55.096;38.760;2024-03-06T02:34:18;4.45;;;1.98;;
77078;SDS011;66004;55.096;38.760;2024-03-06T02:36:43;4.38;;;1.88;;
77078;SDS011;66004;55.096;38.760;2024-03-06T02:39:09;3.17;;;1.92;;
77078;SDS011;66004;55.096;38.760;2024-03-06T02:41:36;3.22;;;1.88;;
77078;SDS011;66004;55.096;38.760;2024-03-06T02:44:01;4.63;;;2.20;;
77078;SDS011;66004;55.096;38.760;2024-03-06T02:46:27;5.15;;;2.10;;
77078;SDS011;66004;55.096;38.760;2024-03-06T02:48:53;4.65;;;1.85;;
77078;SDS011;66004;55.096;38.760;2024-03-06T02:51:20;3.22;;;2.00;;
77078;SDS011;66004;55.096;38.760;2024-03-06T02:53:46;4.30;;;1.98;;
77078;SDS011;66004;55.096;38.760;2024-03-06T02:56:18;3.85;;;1.90;;
77078;SDS011;66004;55.096;38.760;2024-03-06T02:58:44;3.03;;;1.50;;
77078;SDS011;66004;55.096;38.760;2024-03-06T03:01:10;5.35;;;2.10;;
77078;SDS011;66004;55.096;38.760;2024-03-06T03:03:36;3.38;;;1.63;;
77078;SDS011;66004;55.096;38.760;2024-03-06T03:06:01;4.07;;;2.10;;
77078;SDS011;66004;55.096;38.760;2024-03-06T03:08:28;3.40;;;2.15;;
77078;SDS011;66004;55.096;38.760;2024-03-06T03:10:53;3.67;;;2.30;;
77078;SDS011;66004;55.096;38.760;2024-03-06T03:13:20;3.40;;;2.10;;
77078;SDS011;66004;55.096;38.760;2024-03-06T03:15:47;3.40;;;2.05;;
77078;SDS011;66004;55.096;38.760;2024-03-06T03:18:13;3.80;;;2.00;;
77078;SDS011;66004;55.096;38.760;2024-03-06T03:20:38;5.10;;;2.05;;
77078;SDS011;66004;55.096;38.760;2024-03-06T03:23:04;4.45;;;2.25;;
77078;SDS011;66004;55.096;38.760;2024-03-06T03:25:31;5.90;;;2.22;;
77078;SDS011;66004;55.096;38.760;2024-03-06T03:27:58;3.85;;;2.17;;
77078;SDS011;66004;55.096;38.760;2024-03-06T03:30:24;4.63;;;1.98;;
77078;SDS011;66004;55.096;38.760;2024-03-06T03:32:49;5.45;;;2.88;;
77078;SDS011;66004;55.096;38.760;2024-03-06T03:35:15;3.80;;;2.22;;
77078;SDS011;66004;55.096;38.760;2024-03-06T03:37:46;5.25;;;2.35;;
77078;SDS011;66004;55.096;38.760;2024-03-06T03:40:11;4.95;;;1.70;;
77078;SDS011;66004;55.096;38.760;2024-03-06T03:42:38;3.13;;;1.70;;
77078;SDS011;66004;55.096;38.760;2024-03-06T03:45:03;5.07;;;2.08;;
77078;SDS011;66004;55.096;38.760;2024-03-06T03:47:29;4.82;;;2.70;;
77078;SDS011;66004;55.096;38.760;2024-03-06T03:49:55;3.83;;;2.00;;
77078;SDS011;66004;55.096;38.760;2024-03-06T03:52:21;6.03;;;2.60;;
77078;SDS011;66004;55.096;38.760;2024-03-06T03:54:47;3.08;;;2.03;;
77078;SDS011;66004;55.096;38.760;2024-03-06T03:57:13;3.70;;;2.08;;
77078;SDS011;66004;55.096;38.760;2024-03-06T03:59:39;6.95;;;3.45;;
77078;SDS011;66004;55.096;38.760;2024-03-06T04:02:06;6.50;;;3.22;;
77078;SDS011;66004;55.096;38.760;2024-03-06T04:04:33;5.75;;;3.13;;
77078;SDS011;66004;55.096;38.760;2024-03-06T04:06:59;9.30;;;3.15;;
77078;SDS011;66004;55.096;38.760;2024-03-06T04:09:27;8.48;;;3.05;;
77078;SDS011;66004;55.096;38.760;2024-03-06T04:11:52;5.97;;;2.63;;
77078;SDS011;66004;55.096;38.760;2024-03-06T04:14:18;6.03;;;2.67;;
77078;SDS011;66004;55.096;38.760;2024-03-06T04:16:47;4.72;;;2.28;;
77078;SDS011;66004;55.096;38.760;2024-03-06T04:19:13;5.28;;;2.08;;
77078;SDS011;66004;55.096;38.760;2024-03-06T04:21:42;5.18;;;2.47;;
77078;SDS011;66004;55.096;38.760;2024-03-06T04:24:08;6.95;;;3.00;;
77078;SDS011;66004;55.096;38.760;2024-03-06T04:26:34;8.82;;;2.75;;
77078;SDS011;66004;55.096;38.760;2024-03-06T04:29:00;6.18;;;3.10;;
77078;SDS011;66004;55.096;38.760;2024-03-06T04:31:25;4.68;;;2.45;;
77078;SDS011;66004;55.096;38.760;2024-03-06T04:33:51;8.93;;;3.17;;
77078;SDS011;66004;55.096;38.760;2024-03-06T04:36:16;8.57;;;3.08;;
77078;SDS011;66004;55.096;38.760;2024-03-06T04:38:42;5.50;;;2.72;;
77078;SDS011;66004;55.096;38.760;2024-03-06T04:41:08;8.52;;;2.90;;
77078;SDS011;66004;55.096;38.760;2024-03-06T04:43:33;6.30;;;2.30;;
77078;SDS011;66004;55.096;38.760;2024-03-06T04:48:25;9.02;;;2.67;;
77078;SDS011;66004;55.096;38.760;2024-03-06T04:50:50;6.38;;;2.28;;
77078;SDS011;66004;55.096;38.760;2024-03-06T04:53:16;5.75;;;2.60;;
77078;SDS011;66004;55.096;38.760;2024-03-06T04:55:42;4.57;;;2.20;;
77078;SDS011;66004;55.096;38.760;2024-03-06T04:58:07;6.82;;;2.35;;
77078;SDS011;66004;55.096;38.760;2024-03-06T05:00:33;5.75;;;2.55;;
77078;SDS011;66004;55.096;38.760;2024-03-06T05:02:59;6.72;;;2.60;;
77078;SDS011;66004;55.096;38.760;2024-03-06T05:05:25;14.85;;;3.50;;
77078;SDS011;66004;55.096;38.760;2024-03-06T05:07:50;7.35;;;3.10;;
77078;SDS011;66004;55.096;38.760;2024-03-06T05:10:19;6.60;;;2.40;;
77078;SDS011;66004;55.096;38.760;2024-03-06T05:12:45;7.00;;;3.58;;
77078;SDS011;66004;55.096;38.760;2024-03-06T05:15:10;7.22;;;3.25;;
77078;SDS011;66004;55.096;38.760;2024-03-06T05:17:36;6.63;;;2.55;;
77078;SDS011;66004;55.096;38.760;2024-03-06T05:20:02;3.15;;;1.83;;
77078;SDS011;66004;55.096;38.760;2024-03-06T05:22:29;6.75;;;2.30;;
77078;SDS011;66004;55.096;38.760;2024-03-06T05:24:54;10.75;;;2.55;;
77078;SDS011;66004;55.096;38.760;2024-03-06T05:27:20;6.60;;;2.50;;
77078;SDS011;66004;55.096;38.760;2024-03-06T05:29:46;5.13;;;2.03;;
77078;SDS011;66004;55.096;38.760;2024-03-06T05:32:14;6.57;;;2.90;;
77078;SDS011;66004;55.096;38.760;2024-03-06T05:34:40;7.35;;;2.90;;
77078;SDS011;66004;55.096;38.760;2024-03-06T05:37:05;5.30;;;2.10;;
77078;SDS011;66004;55.096;38.760;2024-03-06T05:39:31;2.47;;;1.80;;
77078;SDS011;66004;55.096;38.760;2024-03-06T05:44:30;6.80;;;2.25;;
77078;SDS011;66004;55.096;38.760;2024-03-06T05:47:00;4.57;;;2.72;;
77078;SDS011;66004;55.096;38.760;2024-03-06T05:49:27;6.65;;;2.75;;
77078;SDS011;66004;55.096;38.760;2024-03-06T05:51:53;13.45;;;3.30;;
77078;SDS011;66004;55.096;38.760;2024-03-06T05:54:22;7.35;;;3.05;;
77078;SDS011;66004;55.096;38.760;2024-03-06T05:56:48;10.57;;;3.30;;
77078;SDS011;66004;55.096;38.760;2024-03-06T05:59:20;12.32;;;4.57;;
77078;SDS011;66004;55.096;38.760;2024-03-06T06:01:46;7.65;;;2.70;;
77078;SDS011;66004;55.096;38.760;2024-03-06T06:04:12;9.18;;;3.03;;
77078;SDS011;66004;55.096;38.760;2024-03-06T06:06:40;5.32;;;2.80;;
77078;SDS011;66004;55.096;38.760;2024-03-06T06:09:06;6.70;;;2.83;;
77078;SDS011;66004;55.096;38.760;2024-03-06T06:11:35;7.07;;;2.33;;
77078;SDS011;66004;55.096;38.760;2024-03-06T06:14:00;5.90;;;2.72;;
77078;SDS011;66004;55.096;38.760;2024-03-06T06:16:26;9.40;;;2.88;;
77078;SDS011;66004;55.096;38.760;2024-03-06T06:18:51;7.93;;;2.67;;
77078;SDS011;66004;55.096;38.760;2024-03-06T06:21:17;8.38;;;3.00;;
77078;SDS011;66004;55.096;38.760;2024-03-06T06:23:43;10.60;;;3.15;;
77078;SDS011;66004;55.096;38.760;2024-03-06T06:26:09;10.23;;;3.42;;
77078;SDS011;66004;55.096;38.760;2024-03-06T06:28:35;7.35;;;3.42;;
77078;SDS011;66004;55.096;38.760;2024-03-06T06:31:02;6.00;;;2.00;;
77078;SDS011;66004;55.096;38.760;2024-03-06T06:33:29;13.43;;;4.00;;
77078;SDS011;66004;55.096;38.760;2024-03-06T06:35:55;6.10;;;3.53;;
77078;SDS011;66004;55.096;38.760;2024-03-06T06:38:20;16.67;;;5.18;;
77078;SDS011;66004;55.096;38.760;2024-03-06T06:40:46;13.32;;;4.60;;
77078;SDS011;66004;55.096;38.760;2024-03-06T06:43:12;12.75;;;5.43;;
77078;SDS011;66004;55.096;38.760;2024-03-06T06:45:38;18.25;;;6.47;;
77078;SDS011;66004;55.096;38.760;2024-03-06T06:48:04;17.60;;;5.85;;
77078;SDS011;66004;55.096;38.760;2024-03-06T06:50:30;9.55;;;3.85;;
77078;SDS011;66004;55.096;38.760;2024-03-06T06:52:58;8.90;;;4.15;;
77078;SDS011;66004;55.096;38.760;2024-03-06T06:55:24;10.50;;;3.42;;
77078;SDS011;66004;55.096;38.760;2024-03-06T06:57:50;22.63;;;4.47;;
77078;SDS011;66004;55.096;38.760;2024-03-06T07:00:16;13.00;;;3.60;;
77078;SDS011;66004;55.096;38.760;2024-03-06T07:02:43;10.38;;;4.05;;
77078;SDS011;66004;55.096;38.760;2024-03-06T07:05:10;7.85;;;3.03;;
77078;SDS011;66004;55.096;38.760;2024-03-06T07:10:03;6.95;;;3.78;;
77078;SDS011;66004;55.096;38.760;2024-03-06T07:12:32;10.77;;;3.53;;
77078;SDS011;66004;55.096;38.760;2024-03-06T07:14:58;11.15;;;3.63;;
77078;SDS011;66004;55.096;38.760;2024-03-06T07:17:28;11.13;;;3.22;;
77078;SDS011;66004;55.096;38.760;2024-03-06T07:19:53;13.02;;;4.50;;
77078;SDS011;66004;55.096;38.760;2024-03-06T07:22:19;9.85;;;4.38;;
77078;SDS011;66004;55.096;38.760;2024-03-06T07:24:45;10.02;;;3.53;;
77078;SDS011;66004;55.096;38.760;2024-03-06T07:27:10;9.00;;;3.15;;
77078;SDS011;66004;55.096;38.760;2024-03-06T07:29:36;11.27;;;3.83;;
77078;SDS011;66004;55.096;38.760;2024-03-06T07:32:02;10.60;;;3.97;;
77078;SDS011;66004;55.096;38.760;2024-03-06T07:34:29;10.90;;;3.92;;
77078;SDS011;66004;55.096;38.760;2024-03-06T07:36:55;7.63;;;3.47;;
77078;SDS011;66004;55.096;38.760;2024-03-06T07:39:20;8.13;;;3.08;;
77078;SDS011;66004;55.096;38.760;2024-03-06T07:41:46;13.40;;;3.22;;
77078;SDS011;66004;55.096;38.760;2024-03-06T07:44:12;6.82;;;2.78;;
77078;SDS011;66004;55.096;38.760;2024-03-06T07:46:38;8.65;;;2.75;;
77078;SDS011;66004;55.096;38.760;2024-03-06T07:49:03;7.45;;;3.17;;
77078;SDS011;66004;55.096;38.760;2024-03-06T07:51:32;5.90;;;2.80;;
77078;SDS011;66004;55.096;38.760;2024-03-06T07:53:58;6.97;;;2.22;;
77078;SDS011;66004;55.096;38.760;2024-03-06T07:56:25;5.75;;;2.70;;
77078;SDS011;66004;55.096;38.760;2024-03-06T08:01:16;8.73;;;2.75;;
77078;SDS011;66004;55.096;38.760;2024-03-06T08:03:42;7.13;;;3.00;;
77078;SDS011;66004;55.096;38.760;2024-03-06T08:06:10;5.35;;;2.72;;
77078;SDS011;66004;55.096;38.760;2024-03-06T08:08:36;7.78;;;3.45;;
77078;SDS011;66004;55.096;38.760;2024-03-06T08:11:04;13.57;;;4.07;;
77078;SDS011;66004;55.096;38.760;2024-03-06T08:13:31;9.13;;;3.70;;
77078;SDS011;66004;55.096;38.760;2024-03-06T08:15:56;9.23;;;3.58;;
77078;SDS011;66004;55.096;38.760;2024-03-06T08:18:22;7.25;;;3.83;;
77078;SDS011;66004;55.096;38.760;2024-03-06T08:20:47;6.35;;;3.00;;
77078;SDS011;66004;55.096;38.760;2024-03-06T08:23:13;6.60;;;3.28;;
77078;SDS011;66004;55.096;38.760;2024-03-06T08:25:39;7.47;;;2.55;;
77078;SDS011;66004;55.096;38.760;2024-03-06T08:28:04;9.90;;;3.80;;
77078;SDS011;66004;55.096;38.760;2024-03-06T08:30:30;8.93;;;3.50;;
77078;SDS011;66004;55.096;38.760;2024-03-06T08:32:57;10.05;;;3.60;;
77078;SDS011;66004;55.096;38.760;2024-03-06T08:35:23;7.18;;;4.07;;
77078;SDS011;66004;55.096;38.760;2024-03-06T08:37:49;6.20;;;3.83;;
77078;SDS011;66004;55.096;38.760;2024-03-06T08:42:48;6.15;;;3.53;;
77078;SDS011;66004;55.096;38.760;2024-03-06T08:45:17;6.07;;;2.60;;
77078;SDS011;66004;55.096;38.760;2024-03-06T08:47:43;10.60;;;4.07;;
77078;SDS011;66004;55.096;38.760;2024-03-06T08:50:10;11.35;;;4.32;;
77078;SDS011;66004;55.096;38.760;2024-03-06T08:52:36;9.38;;;3.40;;
77078;SDS011;66004;55.096;38.760;2024-03-06T08:55:02;11.25;;;4.90;;
77078;SDS011;66004;55.096;38.760;2024-03-06T08:57:32;6.70;;;3.75;;
77078;SDS011;66004;55.096;38.760;2024-03-06T08:59:58;10.48;;;3.42;;
77078;SDS011;66004;55.096;38.760;2024-03-06T09:02:24;8.02;;;3.10;;
77078;SDS011;66004;55.096;38.760;2024-03-06T09:07:19;9.48;;;4.38;;
77078;SDS011;66004;55.096;38.760;2024-03-06T09:09:48;10.77;;;4.43;;
77078;SDS011;66004;55.096;38.760;2024-03-06T09:12:15;8.73;;;3.72;;
77078;SDS011;66004;55.096;38.760;2024-03-06T09:14:40;9.70;;;4.47;;
77078;SDS011;66004;55.096;38.760;2024-03-06T09:17:07;8.77;;;4.28;;
77078;SDS011;66004;55.096;38.760;2024-03-06T09:19:35;8.32;;;3.53;;
77078;SDS011;66004;55.096;38.760;2024-03-06T09:22:01;7.55;;;3.75;;
77078;SDS011;66004;55.096;38.760;2024-03-06T09:24:28;10.40;;;3.83;;
77078;SDS011;66004;55.096;38.760;2024-03-06T09:26:54;9.68;;;4.05;;
77078;SDS011;66004;55.096;38.760;2024-03-06T09:29:20;8.85;;;4.35;;
77078;SDS011;66004;55.096;38.760;2024-03-06T09:31:46;7.90;;;3.78;;
77078;SDS011;66004;55.096;38.760;2024-03-06T09:34:13;9.35;;;4.10;;
77078;SDS011;66004;55.096;38.760;2024-03-06T09:36:40;10.68;;;4.45;;
77078;SDS011;66004;55.096;38.760;2024-03-06T09:39:10;10.60;;;3.90;;
77078;SDS011;66004;55.096;38.760;2024-03-06T09:41:36;6.93;;;3.20;;
77078;SDS011;66004;55.096;38.760;2024-03-06T09:44:04;8.07;;;4.20;;
77078;SDS011;66004;55.096;38.760;2024-03-06T09:46:30;8.45;;;4.40;;
77078;SDS011;66004;55.096;38.760;2024-03-06T09:48:55;9.23;;;4.10;;
77078;SDS011;66004;55.096;38.760;2024-03-06T09:51:21;9.02;;;4.03;;
77078;SDS011;66004;55.096;38.760;2024-03-06T09:56:16;8.48;;;4.00;;
77078;SDS011;66004;55.096;38.760;2024-03-06T09:58:44;8.90;;;3.70;;
77078;SDS011;66004;55.096;38.760;2024-03-06T10:01:10;6.72;;;3.90;;
77078;SDS011;66004;55.096;38.760;2024-03-06T10:03:38;8.48;;;3.88;;
77078;SDS011;66004;55.096;38.760;2024-03-06T10:06:06;12.60;;;4.15;;
77078;SDS011;66004;55.096;38.760;2024-03-06T10:08:32;8.50;;;3.75;;
77078;SDS011;66004;55.096;38.760;2024-03-06T10:10:59;14.52;;;4.72;;
77078;SDS011;66004;55.096;38.760;2024-03-06T10:13:26;9.68;;;4.90;;
77078;SDS011;66004;55.096;38.760;2024-03-06T10:15:59;9.45;;;4.93;;
77078;SDS011;66004;55.096;38.760;2024-03-06T10:18:30;8.43;;;4.60;;
77078;SDS011;66004;55.096;38.760;2024-03-06T10:20:57;11.10;;;4.30;;
77078;SDS011;66004;55.096;38.760;2024-03-06T10:23:23;7.10;;;4.00;;
77078;SDS011;66004;55.096;38.760;2024-03-06T10:28:17;7.47;;;2.97;;
77078;SDS011;66004;55.096;38.760;2024-03-06T10:30:44;7.53;;;3.50;;
77078;SDS011;66004;55.096;38.760;2024-03-06T10:33:11;11.75;;;4.03;;
77078;SDS011;66004;55.096;38.760;2024-03-06T10:35:39;11.27;;;3.50;;
77078;SDS011;66004;55.096;38.760;2024-03-06T10:38:06;9.13;;;3.53;;
77078;SDS011;66004;55.096;38.760;2024-03-06T10:40:42;6.60;;;2.90;;
77078;SDS011;66004;55.096;38.760;2024-03-06T10:43:09;6.60;;;3.40;;
77078;SDS011;66004;55.096;38.760;2024-03-06T10:45:53;6.60;;;3.05;;
77078;SDS011;66004;55.096;38.760;2024-03-06T10:48:26;7.50;;;3.05;;
77078;SDS011;66004;55.096;38.760;2024-03-06T10:50:53;8.40;;;3.28;;
77078;SDS011;66004;55.096;38.760;2024-03-06T10:53:21;6.15;;;2.83;;
77078;SDS011;66004;55.096;38.760;2024-03-06T10:55:48;6.22;;;2.83;;
77078;SDS011;66004;55.096;38.760;2024-03-06T10:58:15;9.10;;;2.85;;
77078;SDS011;66004;55.096;38.760;2024-03-06T11:00:45;6.95;;;3.25;;
77078;SDS011;66004;55.096;38.760;2024-03-06T11:03:15;8.35;;;3.08;;
77078;SDS011;66004;55.096;38.760;2024-03-06T11:05:42;6.90;;;2.75;;
77078;SDS011;66004;55.096;38.760;2024-03-06T11:08:12;8.07;;;3.35;;
77078;SDS011;66004;55.096;38.760;2024-03-06T11:10:39;4.43;;;2.38;;
77078;SDS011;66004;55.096;38.760;2024-03-06T11:23:28;6.15;;;2.72;;
77078;SDS011;66004;55.096;38.760;2024-03-06T11:26:03;5.45;;;2.45;;
77078;SDS011;66004;55.096;38.760;2024-03-06T11:28:33;6.13;;;2.35;;
77078;SDS011;66004;55.096;38.760;2024-03-06T11:31:06;5.45;;;2.22;;
77078;SDS011;66004;55.096;38.760;2024-03-06T11:33:40;3.67;;;1.98;;
77078;SDS011;66004;55.096;38.760;2024-03-06T11:41:13;4.95;;;2.42;;
77078;SDS011;66004;55.096;38.760;2024-03-06T11:43:42;4.15;;;1.73;;
77078;SDS011;66004;55.096;38.760;2024-03-06T11:46:08;4.78;;;1.85;;
77078;SDS011;66004;55.096;38.760;2024-03-06T11:48:35;5.25;;;2.03;;
77078;SDS011;66004;55.096;38.760;2024-03-06T11:51:01;6.25;;;3.13;;
77078;SDS011;66004;55.096;38.760;2024-03-06T11:53:30;7.57;;;2.92;;
77078;SDS011;66004;55.096;38.760;2024-03-06T11:55:58;4.45;;;1.88;;
77078;SDS011;66004;55.096;38.760;2024-03-06T11:58:24;3.85;;;2.05;;
77078;SDS011;66004;55.096;38.760;2024-03-06T12:00:51;4.75;;;1.85;;
77078;SDS011;66004;55.096;38.760;2024-03-06T12:03:19;4.43;;;1.88;;
77078;SDS011;66004;55.096;38.760;2024-03-06T12:05:45;2.38;;;0.82;;
77078;SDS011;66004;55.096;38.760;2024-03-06T12:08:11;3.97;;;1.85;;
77078;SDS011;66004;55.096;38.760;2024-03-06T12:10:37;4.05;;;1.50;;
77078;SDS011;66004;55.096;38.760;2024-03-06T12:13:04;4.07;;;2.05;;
77078;SDS011;66004;55.096;38.760;2024-03-06T12:15:30;4.57;;;2.33;;
77078;SDS011;66004;55.096;38.760;2024-03-06T12:17:55;5.18;;;1.92;;
77078;SDS011;66004;55.096;38.760;2024-03-06T12:20:21;4.35;;;1.88;;
77078;SDS011;66004;55.096;38.760;2024-03-06T12:22:50;4.60;;;1.80;;
77078;SDS011;66004;55.096;38.760;2024-03-06T12:25:24;4.25;;;2.15;;
77078;SDS011;66004;55.096;38.760;2024-03-06T12:27:51;2.65;;;1.58;;
77078;SDS011;66004;55.096;38.760;2024-03-06T12:30:20;6.13;;;1.80;;
77078;SDS011;66004;55.096;38.760;2024-03-06T12:33:00;5.90;;;2.15;;
77078;SDS011;66004;55.096;38.760;2024-03-06T12:35:29;4.85;;;1.70;;
77078;SDS011;66004;55.096;38.760;2024-03-06T12:40:21;4.43;;;2.00;;
77078;SDS011;66004;55.096;38.760;2024-03-06T12:42:47;6.13;;;2.20;;
77078;SDS011;66004;55.096;38.760;2024-03-06T12:45:14;3.45;;;2.05;;
77078;SDS011;66004;55.096;38.760;2024-03-06T12:50:16;2.92;;;1.90;;
77078;SDS011;66004;55.096;38.760;2024-03-06T12:52:41;7.07;;;2.45;;
77078;SDS011;66004;55.096;38.760;2024-03-06T12:55:11;8.02;;;2.28;;
77078;SDS011;66004;55.096;38.760;2024-03-06T13:00:02;6.15;;;3.08;;
77078;SDS011;66004;55.096;38.760;2024-03-06T13:02:28;6.20;;;2.90;;
77078;SDS011;66004;55.096;38.760;2024-03-06T13:04:54;6.03;;;2.28;;
77078;SDS011;66004;55.096;38.760;2024-03-06T13:07:19;6.10;;;2.38;;
77078;SDS011;66004;55.096;38.760;2024-03-06T13:09:45;6.90;;;3.25;;
77078;SDS011;66004;55.096;38.760;2024-03-06T13:12:11;6.55;;;2.33;;
77078;SDS011;66004;55.096;38.760;2024-03-06T13:14:36;5.47;;;2.85;;
77078;SDS011;66004;55.096;38.760;2024-03-06T13:17:02;6.93;;;3.58;;
77078;SDS011;66004;55.096;38.760;2024-03-06T13:19:27;7.25;;;2.22;;
77078;SDS011;66004;55.096;38.760;2024-03-06T13:21:53;5.80;;;2.47;;
77078;SDS011;66004;55.096;38.760;2024-03-06T13:24:19;5.30;;;2.30;;
77078;SDS011;66004;55.096;38.760;2024-03-06T13:26:45;5.82;;;2.13;;
77078;SDS011;66004;55.096;38.760;2024-03-06T13:29:11;4.03;;;2.10;;
77078;SDS011;66004;55.096;38.760;2024-03-06T13:31:38;4.95;;;2.25;;
77078;SDS011;66004;55.096;38.760;2024-03-06T13:34:03;5.63;;;2.00;;
77078;SDS011;66004;55.096;38.760;2024-03-06T13:36:29;7.22;;;2.10;;
77078;SDS011;66004;55.096;38.760;2024-03-06T13:38:58;3.90;;;2.17;;
77078;SDS011;66004;55.096;38.760;2024-03-06T13:41:23;5.07;;;2.08;;
77078;SDS011;66004;55.096;38.760;2024-03-06T13:43:49;6.35;;;2.47;;
77078;SDS011;66004;55.096;38.760;2024-03-06T13:46:14;4.85;;;2.00;;
77078;SDS011;66004;55.096;38.760;2024-03-06T13:48:41;3.58;;;1.88;;
77078;SDS011;66004;55.096;38.760;2024-03-06T13:51:06;7.15;;;2.83;;
77078;SDS011;66004;55.096;38.760;2024-03-06T13:53:32;5.65;;;2.20;;
77078;SDS011;66004;55.096;38.760;2024-03-06T13:55:58;8.65;;;3.25;;
77078;SDS011;66004;55.096;38.760;2024-03-06T13:58:23;4.18;;;2.00;;
77078;SDS011;66004;55.096;38.760;2024-03-06T14:00:49;5.15;;;2.03;;
77078;SDS011;66004;55.096;38.760;2024-03-06T14:03:17;6.65;;;1.65;;
77078;SDS011;66004;55.096;38.760;2024-03-06T14:05:47;6.15;;;2.60;;
77078;SDS011;66004;55.096;38.760;2024-03-06T14:08:12;5.80;;;2.60;;
77078;SDS011;66004;55.096;38.760;2024-03-06T14:10:38;4.85;;;1.83;;
77078;SDS011;66004;55.096;38.760;2024-03-06T14:13:05;3.65;;;2.08;;
77078;SDS011;66004;55.096;38.760;2024-03-06T14:17:57;5.03;;;1.30;;
77078;SDS011;66004;55.096;38.760;2024-03-06T14:20:23;3.92;;;1.65;;
77078;SDS011;66004;55.096;38.760;2024-03-06T14:22:49;3.53;;;1.73;;
77078;SDS011;66004;55.096;38.760;2024-03-06T14:25:14;4.13;;;1.58;;
77078;SDS011;66004;55.096;38.760;2024-03-06T14:27:41;3.42;;;1.45;;
77078;SDS011;66004;55.096;38.760;2024-03-06T14:30:07;3.47;;;1.55;;
77078;SDS011;66004;55.096;38.760;2024-03-06T14:32:33;4.70;;;2.15;;
77078;SDS011;66004;55.096;38.760;2024-03-06T14:34:58;3.85;;;1.30;;
77078;SDS011;66004;55.096;38.760;2024-03-06T14:37:24;3.67;;;1.50;;
77078;SDS011;66004;55.096;38.760;2024-03-06T14:39:49;5.57;;;1.95;;
77078;SDS011;66004;55.096;38.760;2024-03-06T14:44:41;4.40;;;1.95;;
77078;SDS011;66004;55.096;38.760;2024-03-06T14:47:11;9.48;;;2.50;;
77078;SDS011;66004;55.096;38.760;2024-03-06T14:49:38;3.90;;;1.80;;
77078;SDS011;66004;55.096;38.760;2024-03-06T14:52:07;3.78;;;2.15;;
77078;SDS011;66004;55.096;38.760;2024-03-06T14:54:34;4.07;;;1.85;;
77078;SDS011;66004;55.096;38.760;2024-03-06T14:57:00;6.07;;;1.83;;
77078;SDS011;66004;55.096;38.760;2024-03-06T14:59:26;3.85;;;2.08;;
77078;SDS011;66004;55.096;38.760;2024-03-06T15:01:51;4.22;;;2.08;;
77078;SDS011;66004;55.096;38.760;2024-03-06T15:04:17;7.30;;;3.55;;
77078;SDS011;66004;55.096;38.760;2024-03-06T15:06:43;6.20;;;2.78;;
77078;SDS011;66004;55.096;38.760;2024-03-06T15:09:10;7.13;;;3.17;;
77078;SDS011;66004;55.096;38.760;2024-03-06T15:11:37;6.32;;;2.60;;
77078;SDS011;66004;55.096;38.760;2024-03-06T15:16:29;5.95;;;2.90;;
77078;SDS011;66004;55.096;38.760;2024-03-06T15:18:55;7.47;;;3.53;;
77078;SDS011;66004;55.096;38.760;2024-03-06T15:21:22;14.68;;;5.35;;
77078;SDS011;66004;55.096;38.760;2024-03-06T15:26:15;34.88;;;8.90;;